Skip Navigation Links
NOAA logo - Click to go to the NOAA homepage
NOAA's National Weather Service
Alaska Aviation Weather Unit
  NWS logo - Click to go to the NWS homepage
Left Navbar Graphic     02 AKDT = 10 GMT

   
NOAA is celebrating 200 years of science, service, and stewardship. Visit the NOAA 200th celebration Web site to learn more.
USA.gov is the U.S. Government's official Web portal to all Federal, state and local government Web resources and services.
Facebook
NWS on Facebook

AAWU Home :: Display TAF Add Bookmark
TAF PACV 271005Z 2710/2806 35005KT 2SM -SN BR SCT009 OVC015
      TEMPO 2710/2714 3/4SM -SN BR OVC009
     FM271400 09007KT 6SM -SHSN BR SCT025 BKN040=
SPECI PACV 270403Z 35006KT 3/4SM R27/2800VP6000FT -SN BR BKN011 OVC019
     M01/M01 A2958 RMK AO2 P0000 T10061006=

PACV 270412Z 36005KT 1SM R27/5500VP6000FT -SN BR BKN011 OVC017
     M01/M01 A2958 RMK AO2 P0001 T10061006=

SPECI PACV 270429Z 35004KT 3/4SM R27/4500VP6000FT -SN BR BKN009 OVC019
     M01/M01 A2958 RMK AO2 P0002 T10061006=

SPECI PACV 270436Z 01004KT 1SM R27/4500VP6000FT -SN BR VV012 M01/M01
     A2958 RMK AO2 P0003 T10061006=

METAR PACV 270453Z 34005KT 3/4SM R27/4500VP6000FT -SN BR VV015 M01/M01
     A2957 RMK AO2 SLP015 SNINCR 1/8 P0004 T10061006=

SPECI PACV 270521Z 00000KT 8SM FEW026 OVC035 M01/M01 A2957 RMK AO2 SNE14
     P0000 T10061006=

SPECI PACV 270548Z 00000KT 1 3/4SM -SN BR FEW016 OVC028 M01/M01 A2957
     RMK AO2 SNE14B23 P0000=

METAR PACV 270553Z 01003KT 1SM R27/6000VP6000FT -SN BR FEW012 FEW018
     OVC024 M01/M01 A2957 RMK AO2 SLP012 SNE14B23 4/008 P0001
     60012 T10061006 10033 21006 56010=

SPECI PACV 270616Z 35003KT 2 1/2SM -SN BR FEW013 OVC030 M01/M01 A2956
     RMK AO2 P0001 T10061006=

SPECI PACV 270631Z 01003KT 3SM -SN BR OVC044 M01/M01 A2956 RMK AO2 P0001
     T10061006=

SPECI PACV 270644Z VRB03KT 2 1/2SM -SN BR OVC035 M01/M01 A2955 RMK AO2
     P0002 T10061006=

SPECI PACV 270651Z 00000KT 1 3/4SM -SN BR OVC029 M01/M01 A2955 RMK AO2
     P0002=

METAR PACV 270653Z 00000KT 1 3/4SM -SN BR OVC027 M01/M01 A2955 RMK AO2
     SLP007 P0002 T10061006=

SPECI PACV 270734Z 00000KT 2SM -SN BR FEW018 OVC023 00/00 A2955 RMK AO2
     P0001 T00000000=

METAR PACV 270753Z 03003KT 1 1/4SM R27/6000VP6000FT -SN BR OVC020 00/00
     A2954 RMK AO2 SLP004 P0002 T00000000=

SPECI PACV 270810Z 06004KT 3/4SM R27/6000VP6000FT -SN BR VV011 00/00
     A2954 RMK AO2 P0002 T00000000=

SPECI PACV 270817Z 00000KT 1SM R27/5000VP6000FT -SN BR VV009 01/01 A2954
     RMK AO2 P0003 T00060006=

SPECI PACV 270826Z 36003KT 3/4SM R27/4000VP6000FT -SN BR VV009 00/00
     A2954 RMK AO2 P0005 T00000000=

SPECI PACV 270834Z 33004KT 1SM R27/4500VP6000FT -SN BR VV011 00/00 A2954
     RMK AO2 P0006 T00000000=

METAR PACV 270853Z 35004KT 1SM R27/5000VP6000FT -SN BR VV012 00/00 A2953
     RMK AO2 SLP000 P0007 60011 T00000000 400441033 56012=

SPECI PACV 270915Z 35004KT 3/4SM R27/4000V5000FT -SN BR VV008 00/00
     A2952 RMK AO2 P0003 T00000000=

SPECI PACV 270930Z 34004KT 1SM R27/4500VP6000FT -SN BR VV009 00/00 A2952
     RMK AO2 P0004 T00000000=

SPECI PACV 270946Z COR 36003KT 3/4SM R27/5000VP6000FT -SN BR VV010 00/00
     A2951 RMK AO2 P0006 T00000000=

METAR PACV 270953Z 35004KT 3/4SM R27/4500VP6000FT -SN BR VV009 00/00
     A2951 RMK AO2 SLP993 SNINCR 1/09 P0007 T00000000=

SPECI PACV 271013Z 34005KT 1SM R27/5000VP6000FT -SN BR VV010 00/00 A2950
     RMK AO2 P0002 T00000000=


NOAA's National Weather Service
Alaska Aviation Weather Unit
6930 Sand Lake Road
Anchorage, AK 99502-1845
Disclaimer
Credits
Glossary
Privacy Policy
About Us
Career Opportunities
Contact AAWU Internet Services Site last modified: April, 17th 2012